aviador You're here:

LFKC Decoded Metar

CALVI in CORSE ISL.
Report Time2018-02-20 13:30:00
UTC Time2018-02-20 13:52:04
Flight Rules vfr VFR
Wind360° at 13 kt
W.Decomp.*RWY 36: 13.0 kt HW 0.2 kt LCW
Visibility9999 m
Phenomena:N/A
Clouds:Few 052 Hf
Expected CloudBase > 3,200 ft AGL from Temp-Dew spread
CeilingNone
Temp12°C (ISA -3)
Dew Point04°C (58% RH)
AAT6.0°C
QNH1004 hPa
Density Alt295 ft
Elevation190 ft
Report Wrong Elevation
Raw Report
LFKC 201330Z AUTO 36013KT 9999 FEW052 12/04 Q1004 NOSIG=

Extra information for LFKC:More info

Metar Taf Metar & Taf Last 4 Metars F.Rules Stats Wind Profile Meteogram Temp Stats Airport Information Weather charts Add Link Nearby VenuesMetar ALERT Operation Metar Decoded Social comments